createdAt,value
2018-12-30T00:00:02.176Z,16.00
2018-12-30T00:01:02.159Z,13.30
2018-12-30T00:02:02.593Z,15.70
2018-12-30T00:03:02.134Z,15.40
2018-12-30T00:04:02.180Z,9.90
2018-12-30T00:05:02.120Z,13.50
2018-12-30T00:06:02.096Z,14.60
2018-12-30T00:07:02.096Z,21.60
2018-12-30T00:08:02.605Z,16.00
2018-12-30T00:09:02.072Z,13.30
2018-12-30T00:10:02.082Z,14.80
2018-12-30T00:11:02.096Z,11.20
2018-12-30T00:12:02.049Z,17.90
2018-12-30T00:13:02.027Z,19.40
2018-12-30T00:14:02.100Z,12.20
2018-12-30T00:15:02.228Z,18.50
2018-12-30T00:16:02.041Z,12.30
2018-12-30T00:17:01.990Z,14.80
2018-12-30T00:18:01.978Z,14.40
2018-12-30T00:19:01.984Z,17.30
2018-12-30T00:20:01.982Z,20.30
2018-12-30T00:21:08.808Z,11.20
2018-12-30T00:22:02.926Z,15.00
2018-12-30T00:23:01.934Z,14.20
2018-12-30T00:24:01.931Z,15.70
2018-12-30T00:25:01.919Z,22.70
2018-12-30T00:26:01.967Z,17.50
2018-12-30T00:27:01.875Z,17.60
2018-12-30T00:28:01.860Z,16.50
2018-12-30T00:29:01.868Z,14.10
2018-12-30T00:30:01.924Z,19.20
2018-12-30T00:31:01.864Z,19.30
2018-12-30T00:32:01.816Z,12.00
2018-12-30T00:33:01.808Z,20.40
2018-12-30T00:34:01.838Z,18.60
2018-12-30T00:35:01.802Z,18.00
2018-12-30T00:36:01.805Z,16.00
2018-12-30T00:37:01.776Z,15.40
2018-12-30T00:38:01.771Z,14.80
2018-12-30T00:39:01.752Z,16.60
2018-12-30T00:40:01.743Z,15.00
2018-12-30T00:41:01.750Z,14.30
2018-12-30T00:42:01.737Z,17.50
2018-12-30T00:43:01.702Z,18.40
2018-12-30T00:44:01.737Z,20.50
2018-12-30T00:45:01.682Z,19.70
2018-12-30T00:46:01.685Z,13.40
2018-12-30T00:47:01.658Z,20.70
2018-12-30T00:48:01.679Z,24.40
2018-12-30T00:49:01.649Z,16.90
2018-12-30T00:50:01.627Z,18.60
2018-12-30T00:51:01.631Z,23.30
2018-12-30T00:52:01.605Z,16.30
2018-12-30T00:53:01.678Z,21.20
2018-12-30T00:54:01.608Z,17.20
2018-12-30T00:55:01.799Z,17.20
2018-12-30T00:56:01.573Z,18.10
2018-12-30T00:57:01.557Z,23.20
2018-12-30T00:58:01.547Z,15.60
2018-12-30T00:59:01.572Z,20.60
2018-12-30T01:00:01.541Z,15.00
2018-12-30T01:01:01.511Z,13.20
2018-12-30T01:02:01.498Z,18.30
2018-12-30T01:03:01.486Z,17.30
2018-12-30T01:04:01.485Z,23.90
2018-12-30T01:05:01.492Z,13.80
2018-12-30T01:06:01.478Z,14.20
2018-12-30T01:07:01.447Z,19.30
2018-12-30T01:08:01.437Z,19.20
2018-12-30T01:09:01.429Z,21.00
2018-12-30T01:10:01.416Z,20.50
2018-12-30T01:11:01.402Z,16.70
2018-12-30T01:12:01.597Z,18.40
2018-12-30T01:13:01.385Z,17.90
2018-12-30T01:14:01.373Z,16.40
2018-12-30T01:15:01.361Z,18.20
2018-12-30T01:16:01.578Z,19.40
2018-12-30T01:17:01.351Z,15.20
2018-12-30T01:18:01.394Z,21.00
2018-12-30T01:19:01.335Z,21.60
2018-12-30T01:20:01.322Z,13.90
2018-12-30T01:21:01.316Z,18.20
2018-12-30T01:22:01.298Z,19.00
2018-12-30T01:23:01.279Z,19.80
2018-12-30T01:24:01.272Z,19.40
2018-12-30T01:25:01.252Z,21.20
2018-12-30T01:26:01.269Z,26.10
2018-12-30T01:27:01.276Z,13.90
2018-12-30T01:28:01.224Z,12.90
2018-12-30T01:29:01.230Z,16.80
2018-12-30T01:30:01.208Z,18.80
2018-12-30T01:31:01.222Z,25.90
2018-12-30T01:32:01.217Z,17.50
2018-12-30T01:33:01.185Z,18.80
2018-12-30T01:34:01.243Z,20.60
2018-12-30T01:35:01.154Z,24.00
2018-12-30T01:36:01.189Z,18.80
2018-12-30T01:37:01.130Z,15.20
2018-12-30T01:38:01.119Z,14.40
2018-12-30T01:39:01.586Z,18.30
2018-12-30T01:40:01.185Z,15.60
2018-12-30T01:41:01.093Z,16.80
2018-12-30T01:42:01.075Z,23.30
2018-12-30T01:43:01.074Z,18.40
2018-12-30T01:44:01.053Z,20.70
2018-12-30T01:45:01.073Z,19.70
2018-12-30T01:46:01.047Z,22.30
2018-12-30T01:47:01.024Z,16.90
2018-12-30T01:48:01.019Z,16.70
2018-12-30T01:49:01.010Z,15.20
2018-12-30T01:50:00.999Z,19.60
2018-12-30T01:51:01.059Z,21.70
2018-12-30T01:52:00.979Z,21.20
2018-12-30T01:53:00.972Z,14.60
2018-12-30T01:54:00.964Z,17.40
2018-12-30T01:55:00.952Z,12.80
2018-12-30T01:56:00.957Z,15.00
2018-12-30T01:57:00.935Z,15.40
2018-12-30T01:58:00.948Z,22.20
2018-12-30T01:59:00.909Z,12.30
2018-12-30T02:00:00.894Z,15.00
2018-12-30T02:01:00.888Z,20.40
2018-12-30T02:02:00.888Z,17.40
2018-12-30T02:03:00.926Z,16.70
2018-12-30T02:04:00.866Z,15.70
2018-12-30T02:05:00.852Z,12.60
2018-12-30T02:06:00.895Z,22.90
2018-12-30T02:07:00.842Z,12.60
2018-12-30T02:08:00.815Z,18.40
2018-12-30T02:09:01.141Z,14.70
2018-12-30T02:10:00.810Z,20.60
2018-12-30T02:11:00.808Z,18.90
2018-12-30T02:12:00.813Z,17.70
2018-12-30T02:13:00.754Z,20.10
2018-12-30T02:14:00.754Z,20.40
2018-12-30T02:15:00.862Z,12.70
2018-12-30T02:16:00.740Z,14.70
2018-12-30T02:17:00.776Z,12.80
2018-12-30T02:18:00.697Z,14.80
2018-12-30T02:19:00.700Z,14.90
2018-12-30T02:20:00.762Z,16.70
2018-12-30T02:21:01.108Z,15.80
2018-12-30T02:22:00.653Z,14.00
2018-12-30T02:23:07.734Z,15.20
2018-12-30T02:24:00.720Z,14.00
2018-12-30T02:25:00.627Z,20.60
2018-12-30T02:26:00.661Z,8.60
2018-12-30T02:27:00.604Z,13.80
2018-12-30T02:28:00.590Z,12.40
2018-12-30T02:29:00.583Z,16.90
2018-12-30T02:30:00.662Z,13.40
2018-12-30T02:31:00.567Z,16.00
2018-12-30T02:32:00.569Z,17.10
2018-12-30T02:33:00.647Z,15.00
2018-12-30T02:34:00.538Z,12.10
2018-12-30T02:35:00.543Z,14.50
2018-12-30T02:36:00.542Z,16.60
2018-12-30T02:37:00.526Z,16.10
2018-12-30T02:38:00.562Z,10.40
2018-12-30T02:39:00.504Z,12.10
2018-12-30T02:40:00.479Z,10.50
2018-12-30T02:41:00.530Z,10.10
2018-12-30T02:42:00.501Z,10.00
2018-12-30T02:43:00.444Z,10.10
2018-12-30T02:44:00.517Z,10.90
2018-12-30T02:45:00.421Z,17.40
2018-12-30T02:46:00.422Z,11.50
2018-12-30T02:47:00.639Z,8.70
2018-12-30T02:48:00.451Z,15.00
2018-12-30T02:49:00.411Z,13.00
2018-12-30T02:50:00.416Z,17.20
2018-12-30T02:51:00.354Z,13.70
2018-12-30T02:52:00.354Z,15.90
2018-12-30T02:53:00.384Z,15.00
2018-12-30T02:56:35.919Z,15.80
2018-12-30T02:57:35.894Z,14.50
2018-12-30T02:58:35.915Z,14.30
2018-12-30T02:59:35.865Z,16.10
2018-12-30T03:00:35.838Z,14.20
2018-12-30T03:01:35.918Z,9.10
2018-12-30T03:02:35.935Z,17.40
2018-12-30T03:03:35.855Z,10.50
2018-12-30T03:04:35.819Z,13.20
2018-12-30T03:05:35.838Z,13.80
2018-12-30T03:06:35.885Z,20.20
2018-12-30T03:07:35.797Z,11.90
2018-12-30T03:08:35.829Z,10.70
2018-12-30T03:09:35.772Z,13.00
2018-12-30T03:10:35.739Z,13.40
2018-12-30T03:11:35.749Z,14.10
2018-12-30T03:12:35.766Z,13.00
2018-12-30T03:13:35.715Z,17.70
2018-12-30T03:14:35.735Z,17.80
2018-12-30T03:15:35.688Z,16.30
2018-12-30T03:16:35.712Z,19.20
2018-12-30T03:17:35.707Z,11.10
2018-12-30T03:18:35.697Z,14.00
2018-12-30T03:19:35.644Z,14.80
2018-12-30T03:20:35.664Z,19.80
2018-12-30T03:21:35.645Z,21.70
2018-12-30T03:22:35.665Z,18.50
2018-12-30T03:23:35.609Z,15.40
2018-12-30T03:24:35.596Z,15.30
2018-12-30T03:25:35.601Z,12.60
2018-12-30T03:27:28.251Z,6.40
2018-12-30T03:28:28.209Z,13.70
2018-12-30T03:29:28.217Z,17.30
2018-12-30T03:30:28.284Z,11.50
2018-12-30T03:31:28.190Z,15.70
2018-12-30T03:32:28.234Z,10.30
2018-12-30T03:33:28.179Z,15.10
2018-12-30T03:34:28.185Z,15.10
2018-12-30T03:35:28.157Z,15.10
2018-12-30T03:36:28.133Z,16.10
2018-12-30T03:37:28.193Z,13.10
2018-12-30T03:38:28.125Z,15.10
2018-12-30T03:39:28.204Z,18.40
2018-12-30T03:40:28.116Z,15.70
2018-12-30T03:41:28.117Z,19.20
2018-12-30T03:42:28.121Z,15.80
2018-12-30T03:43:28.065Z,17.20
2018-12-30T03:44:28.040Z,16.60
2018-12-30T03:45:28.077Z,14.80
2018-12-30T03:46:28.049Z,13.50
2018-12-30T03:47:28.669Z,11.50
2018-12-30T03:48:28.048Z,11.90
2018-12-30T03:49:28.017Z,14.20
2018-12-30T03:50:27.983Z,14.80
2018-12-30T03:51:27.985Z,18.50
2018-12-30T03:52:27.967Z,14.80
2018-12-30T03:53:28.034Z,15.10
2018-12-30T03:54:27.945Z,19.10
2018-12-30T03:55:27.930Z,14.20
2018-12-30T03:56:27.926Z,10.40
2018-12-30T03:58:23.724Z,16.30
2018-12-30T03:59:23.733Z,14.20
2018-12-30T04:00:23.677Z,11.40
2018-12-30T04:01:23.680Z,12.70
2018-12-30T04:02:23.669Z,13.10
2018-12-30T04:03:23.641Z,11.50
2018-12-30T04:04:23.655Z,12.40
2018-12-30T04:05:23.682Z,18.30
2018-12-30T04:06:23.621Z,16.30
2018-12-30T04:07:23.616Z,12.10
2018-12-30T04:08:23.595Z,20.50
2018-12-30T04:09:23.575Z,20.40
2018-12-30T04:10:23.582Z,10.60
2018-12-30T04:11:23.881Z,13.00
2018-12-30T04:12:23.757Z,17.30
2018-12-30T04:13:23.548Z,14.10
2018-12-30T04:14:23.564Z,17.20
2018-12-30T04:15:23.530Z,14.50
2018-12-30T04:16:23.530Z,16.10
2018-12-30T04:17:23.525Z,14.80
2018-12-30T04:18:23.498Z,16.40
2018-12-30T04:19:23.480Z,12.70
2018-12-30T04:20:23.464Z,10.10
2018-12-30T04:21:23.501Z,17.50
2018-12-30T04:22:23.453Z,15.70
2018-12-30T04:23:23.552Z,23.20
2018-12-30T04:24:23.483Z,16.20
2018-12-30T04:25:23.432Z,13.00
2018-12-30T04:26:23.412Z,18.40
2018-12-30T04:27:23.383Z,14.20
2018-12-30T04:28:23.391Z,17.10
2018-12-30T04:29:23.859Z,14.30
2018-12-30T04:30:23.419Z,15.30
2018-12-30T04:31:23.391Z,22.20
2018-12-30T04:32:23.360Z,11.50
2018-12-30T04:33:23.317Z,14.00
2018-12-30T04:34:23.325Z,12.90
2018-12-30T04:35:23.479Z,13.50
2018-12-30T04:36:23.299Z,15.80
2018-12-30T04:37:23.296Z,12.40
2018-12-30T04:38:23.269Z,14.30
2018-12-30T04:39:23.279Z,11.30
2018-12-30T04:40:23.247Z,14.70
2018-12-30T04:41:23.380Z,12.40
2018-12-30T04:42:23.292Z,16.20
2018-12-30T04:43:23.281Z,18.10
2018-12-30T04:44:23.241Z,15.30
2018-12-30T04:45:23.212Z,9.90
2018-12-30T04:46:23.205Z,13.40
2018-12-30T04:47:23.185Z,10.40
2018-12-30T04:48:23.382Z,12.60
2018-12-30T04:49:23.168Z,14.30
2018-12-30T04:50:23.148Z,10.70
2018-12-30T04:51:23.179Z,18.30
2018-12-30T04:52:25.830Z,18.30
2018-12-30T04:53:23.150Z,14.20
2018-12-30T04:54:23.119Z,14.80
2018-12-30T04:55:23.122Z,13.90
2018-12-30T04:56:23.115Z,9.40
2018-12-30T04:57:23.067Z,14.90
2018-12-30T04:59:40.599Z,3.00
2018-12-30T05:00:40.548Z,15.80
2018-12-30T05:01:40.549Z,12.80
2018-12-30T05:02:40.544Z,14.80
2018-12-30T05:03:41.050Z,15.60
2018-12-30T05:04:40.510Z,15.60
2018-12-30T05:05:40.514Z,12.50
2018-12-30T05:06:40.528Z,16.40
2018-12-30T05:07:40.474Z,18.60
2018-12-30T05:08:40.562Z,17.40
2018-12-30T05:09:40.570Z,13.20
2018-12-30T05:10:40.459Z,14.30
2018-12-30T05:11:40.466Z,14.50
2018-12-30T05:12:40.455Z,13.20
2018-12-30T05:13:40.448Z,11.00
2018-12-30T05:14:40.450Z,10.70
2018-12-30T05:15:40.413Z,18.40
2018-12-30T05:16:40.408Z,13.20
2018-12-30T05:17:40.368Z,16.30
2018-12-30T05:18:40.351Z,11.90
2018-12-30T05:19:40.339Z,14.80
2018-12-30T05:20:40.404Z,9.70
2018-12-30T05:21:40.366Z,11.80
2018-12-30T05:22:40.332Z,24.20
2018-12-30T05:23:40.328Z,12.30
2018-12-30T05:24:40.298Z,19.00
2018-12-30T05:25:40.464Z,13.60
2018-12-30T05:26:40.325Z,10.60
2018-12-30T05:27:40.291Z,13.70
2018-12-30T05:28:40.257Z,16.30
2018-12-30T05:30:37.317Z,12.20
2018-12-30T05:31:37.291Z,14.40
2018-12-30T05:32:37.320Z,13.70
2018-12-30T05:33:37.277Z,16.80
2018-12-30T05:34:37.260Z,15.50
2018-12-30T05:35:37.263Z,14.70
2018-12-30T05:36:37.260Z,17.00
2018-12-30T05:37:37.319Z,20.30
2018-12-30T05:38:37.250Z,14.30
2018-12-30T05:39:37.226Z,13.40
2018-12-30T05:40:37.204Z,14.50
2018-12-30T05:41:37.223Z,19.70
2018-12-30T05:42:37.177Z,19.20
2018-12-30T05:43:37.186Z,18.20
2018-12-30T05:44:37.199Z,15.50
2018-12-30T05:45:37.151Z,12.50
2018-12-30T05:46:37.143Z,13.50
2018-12-30T05:47:37.183Z,13.00
2018-12-30T05:48:37.882Z,21.40
2018-12-30T05:49:37.114Z,19.60
2018-12-30T05:50:37.182Z,11.00
2018-12-30T05:51:37.077Z,11.90
2018-12-30T05:52:41.846Z,15.60
2018-12-30T05:53:38.058Z,13.90
2018-12-30T05:54:37.061Z,15.70
2018-12-30T05:55:37.042Z,14.20
2018-12-30T05:56:37.068Z,17.30
2018-12-30T05:57:37.030Z,12.90
2018-12-30T05:58:37.007Z,20.10
2018-12-30T05:59:37.064Z,15.20
2018-12-30T06:04:22.564Z,22.90
2018-12-30T06:05:22.555Z,16.80
2018-12-30T06:06:22.556Z,16.90
2018-12-30T06:07:22.532Z,12.20
2018-12-30T06:08:22.543Z,12.50
2018-12-30T06:09:22.570Z,23.30
2018-12-30T06:10:22.545Z,17.90
2018-12-30T06:11:22.500Z,19.20
2018-12-30T06:12:22.487Z,18.80
2018-12-30T06:13:22.501Z,19.70
2018-12-30T06:14:22.533Z,14.20
2018-12-30T06:15:22.479Z,22.20
2018-12-30T06:16:22.431Z,12.60
2018-12-30T06:17:22.426Z,16.50
2018-12-30T06:18:22.423Z,17.30
2018-12-30T06:19:22.441Z,13.30
2018-12-30T06:20:22.488Z,18.20
2018-12-30T06:21:22.444Z,18.20
2018-12-30T06:22:22.370Z,15.40
2018-12-30T06:23:22.361Z,20.40
2018-12-30T06:24:22.426Z,16.90
2018-12-30T06:25:22.376Z,18.40
2018-12-30T06:26:22.323Z,13.70
2018-12-30T06:27:22.318Z,17.90
2018-12-30T06:28:22.322Z,16.10
2018-12-30T06:29:22.421Z,15.30
2018-12-30T06:30:22.271Z,21.00
2018-12-30T06:31:22.280Z,17.20
2018-12-30T06:32:22.285Z,19.90
2018-12-30T06:33:22.285Z,13.80
2018-12-30T06:35:32.434Z,32.50
2018-12-30T06:36:32.431Z,19.30
2018-12-30T06:37:32.395Z,16.40
2018-12-30T06:38:32.400Z,18.70
2018-12-30T06:39:32.735Z,19.30
2018-12-30T06:40:32.380Z,11.90
2018-12-30T06:41:32.470Z,13.50
2018-12-30T06:42:32.365Z,19.60
2018-12-30T06:43:32.321Z,16.60
2018-12-30T06:44:32.360Z,16.30
2018-12-30T06:45:32.383Z,16.20
2018-12-30T06:46:32.340Z,17.30
2018-12-30T06:47:32.295Z,15.10
2018-12-30T06:48:32.288Z,16.70
2018-12-30T06:49:32.300Z,17.70
2018-12-30T06:50:32.312Z,17.70
2018-12-30T06:51:32.309Z,18.80
2018-12-30T06:52:32.252Z,21.60
2018-12-30T06:53:32.237Z,15.40
2018-12-30T06:54:32.226Z,13.40
2018-12-30T06:55:32.218Z,17.70
2018-12-30T06:56:32.244Z,16.80
2018-12-30T06:57:32.183Z,22.20
2018-12-30T06:58:32.194Z,20.20
2018-12-30T06:59:32.232Z,18.90
2018-12-30T07:00:32.158Z,20.40
2018-12-30T07:01:32.148Z,21.40
2018-12-30T07:02:32.499Z,16.30
2018-12-30T07:03:32.115Z,23.20
2018-12-30T07:04:32.116Z,17.80
2018-12-30T07:08:08.256Z,12.10
2018-12-30T07:09:08.224Z,17.50
2018-12-30T07:10:08.181Z,21.30
2018-12-30T07:11:08.191Z,17.90
2018-12-30T07:12:08.197Z,15.20
2018-12-30T07:13:08.142Z,17.00
2018-12-30T07:14:08.669Z,13.80
2018-12-30T07:15:08.114Z,18.70
2018-12-30T07:16:08.099Z,19.50
2018-12-30T07:17:08.090Z,19.80
2018-12-30T07:18:08.090Z,16.00
2018-12-30T07:19:08.086Z,20.40
2018-12-30T07:20:08.115Z,18.00
2018-12-30T07:21:08.049Z,19.40
2018-12-30T07:22:08.041Z,17.90
2018-12-30T07:23:08.047Z,19.00
2018-12-30T07:24:08.010Z,15.90
2018-12-30T07:25:08.070Z,16.30
2018-12-30T07:26:08.001Z,19.50
2018-12-30T07:27:08.032Z,17.80
2018-12-30T07:28:08.016Z,15.70
2018-12-30T07:29:07.964Z,21.80
2018-12-30T07:30:08.030Z,18.20
2018-12-30T07:31:07.954Z,20.50
2018-12-30T07:32:07.932Z,21.00
2018-12-30T07:33:07.946Z,16.30
2018-12-30T07:34:07.939Z,21.60
2018-12-30T07:35:07.910Z,22.10
2018-12-30T07:36:08.157Z,19.80
2018-12-30T07:37:07.871Z,21.10
2018-12-30T07:40:16.893Z,25.40
2018-12-30T07:41:17.425Z,21.50
2018-12-30T07:42:16.870Z,17.40
2018-12-30T07:43:16.860Z,19.10
2018-12-30T07:44:16.846Z,19.50
2018-12-30T07:45:16.868Z,21.60
2018-12-30T07:46:16.855Z,23.30
2018-12-30T07:47:16.857Z,20.70
2018-12-30T07:48:16.809Z,24.70
2018-12-30T07:49:16.803Z,22.70
2018-12-30T07:50:16.910Z,25.70
2018-12-30T07:51:16.790Z,16.20
2018-12-30T07:52:16.765Z,23.30
2018-12-30T07:53:16.788Z,24.10
2018-12-30T07:54:16.736Z,21.80
2018-12-30T07:55:16.757Z,27.60
2018-12-30T07:56:16.750Z,26.30
2018-12-30T07:57:16.719Z,22.10
2018-12-30T07:58:16.704Z,22.00
2018-12-30T07:59:16.689Z,23.10
2018-12-30T08:00:16.676Z,22.10
2018-12-30T08:01:16.649Z,16.90
2018-12-30T08:02:16.695Z,24.90
2018-12-30T08:03:16.647Z,26.10
2018-12-30T08:04:16.647Z,30.10
2018-12-30T08:05:16.925Z,21.80
2018-12-30T08:06:16.633Z,31.10
2018-12-30T08:07:16.607Z,28.40
2018-12-30T08:08:16.609Z,23.40
2018-12-30T08:09:16.585Z,28.80
2018-12-30T08:10:16.600Z,23.20
2018-12-30T08:11:16.934Z,25.50
2018-12-30T08:12:16.574Z,28.70
2018-12-30T08:13:16.672Z,26.70
2018-12-30T08:14:16.534Z,37.50
2018-12-30T08:15:16.496Z,24.30
2018-12-30T08:16:16.567Z,28.10
2018-12-30T08:17:16.528Z,27.40
2018-12-30T08:18:16.486Z,33.10
2018-12-30T08:19:16.482Z,28.10
2018-12-30T08:20:16.487Z,25.30
2018-12-30T08:21:16.501Z,25.90
2018-12-30T08:22:16.461Z,31.50
2018-12-30T08:23:21.466Z,35.50
2018-12-30T08:24:17.425Z,31.70
2018-12-30T08:25:16.415Z,32.40
2018-12-30T08:26:16.930Z,28.80
2018-12-30T08:27:16.394Z,30.00
2018-12-30T08:28:16.385Z,28.30
2018-12-30T08:29:16.366Z,28.40
2018-12-30T08:30:16.358Z,27.60
2018-12-30T08:31:16.483Z,28.50
2018-12-30T08:32:16.339Z,33.00
2018-12-30T08:33:16.328Z,31.10
2018-12-30T08:34:16.321Z,23.20
2018-12-30T08:35:16.282Z,24.40
2018-12-30T08:36:16.285Z,29.40
2018-12-30T08:37:16.303Z,24.70
2018-12-30T08:38:16.303Z,25.10
2018-12-30T08:39:16.298Z,28.10
2018-12-30T08:40:16.297Z,22.90
2018-12-30T08:41:16.243Z,25.10
2018-12-30T08:42:16.217Z,26.90
2018-12-30T08:43:17.278Z,32.80
2018-12-30T08:44:16.197Z,26.00
2018-12-30T08:45:16.192Z,24.20
2018-12-30T08:46:16.251Z,25.80
2018-12-30T08:47:16.212Z,25.70
2018-12-30T08:48:16.155Z,30.80
2018-12-30T08:49:16.200Z,29.50
2018-12-30T08:50:16.138Z,31.60
2018-12-30T08:51:16.149Z,23.50
2018-12-30T08:52:16.112Z,25.30
2018-12-30T08:53:16.132Z,27.70
2018-12-30T08:54:16.112Z,31.30
2018-12-30T08:55:16.091Z,29.50
2018-12-30T08:56:16.079Z,30.20
2018-12-30T08:57:16.107Z,29.60
2018-12-30T08:58:16.144Z,32.80
2018-12-30T08:59:16.052Z,31.50
2018-12-30T09:00:16.041Z,25.80
2018-12-30T09:01:16.041Z,28.90
2018-12-30T09:02:16.022Z,30.90
2018-12-30T09:03:16.449Z,23.00
2018-12-30T09:04:15.981Z,26.20
2018-12-30T09:05:15.974Z,27.30
2018-12-30T09:06:15.977Z,27.90
2018-12-30T09:07:15.978Z,28.40
2018-12-30T09:08:15.959Z,28.30
2018-12-30T09:09:16.012Z,28.20
2018-12-30T09:10:15.933Z,27.10
2018-12-30T09:11:17.218Z,23.20
2018-12-30T09:12:15.926Z,24.80
2018-12-30T09:13:15.906Z,24.20
2018-12-30T09:14:15.906Z,21.70
2018-12-30T09:15:15.905Z,22.00
2018-12-30T09:16:15.867Z,21.50
2018-12-30T09:17:15.914Z,26.30
2018-12-30T09:18:15.864Z,27.00
2018-12-30T09:19:15.839Z,20.00
2018-12-30T09:20:15.842Z,24.90
2018-12-30T09:21:15.826Z,22.70
2018-12-30T09:22:15.818Z,23.00
2018-12-30T09:23:15.930Z,23.50
2018-12-30T09:24:15.782Z,23.60
2018-12-30T09:25:15.784Z,24.60
2018-12-30T09:26:15.835Z,23.60
2018-12-30T09:27:15.758Z,23.20
2018-12-30T09:28:15.750Z,21.50
2018-12-30T09:29:15.725Z,21.40
2018-12-30T09:30:15.718Z,14.80
2018-12-30T09:31:15.759Z,15.90
2018-12-30T09:32:15.715Z,16.80
2018-12-30T09:33:15.692Z,16.60
2018-12-30T09:34:15.731Z,25.90
2018-12-30T09:35:15.647Z,13.30
2018-12-30T09:36:15.659Z,16.00
2018-12-30T09:37:15.716Z,18.10
2018-12-30T09:38:15.638Z,17.90
2018-12-30T09:39:15.629Z,16.90
2018-12-30T09:40:15.628Z,14.90
2018-12-30T09:41:15.604Z,14.90
2018-12-30T09:42:15.911Z,17.90
2018-12-30T09:43:15.595Z,23.80
2018-12-30T09:44:15.564Z,16.60
2018-12-30T09:45:15.556Z,14.10
2018-12-30T09:46:15.560Z,13.60
2018-12-30T09:47:15.540Z,19.10
2018-12-30T09:48:15.584Z,15.50
2018-12-30T09:49:15.523Z,11.90
2018-12-30T09:50:15.521Z,13.00
2018-12-30T09:51:15.499Z,14.90
2018-12-30T09:52:15.512Z,16.40
2018-12-30T09:53:15.507Z,12.40
2018-12-30T09:54:15.584Z,13.60
2018-12-30T09:55:15.451Z,15.30
2018-12-30T09:56:15.441Z,17.30
2018-12-30T09:57:15.434Z,16.40
2018-12-30T09:58:15.421Z,10.90
2018-12-30T09:59:15.418Z,14.60
2018-12-30T10:00:15.459Z,15.60
2018-12-30T10:01:15.438Z,14.60
2018-12-30T10:02:15.386Z,14.60
2018-12-30T10:03:15.398Z,14.90
2018-12-30T10:04:15.377Z,12.40
2018-12-30T10:05:15.346Z,14.00
2018-12-30T10:06:15.383Z,12.20
2018-12-30T10:07:15.456Z,12.80
2018-12-30T10:08:15.322Z,12.50
2018-12-30T10:09:15.312Z,14.70
2018-12-30T10:10:15.296Z,11.40
2018-12-30T10:11:15.305Z,8.70
2018-12-30T10:12:15.329Z,11.50
2018-12-30T10:13:15.309Z,8.80
2018-12-30T10:14:15.263Z,11.60
2018-12-30T10:15:15.236Z,14.20
2018-12-30T10:16:15.237Z,16.50
2018-12-30T10:17:15.414Z,11.40
2018-12-30T10:18:15.220Z,11.80
2018-12-30T10:19:15.230Z,16.40
2018-12-30T10:20:15.195Z,13.30
2018-12-30T10:21:15.181Z,9.40
2018-12-30T10:22:15.198Z,12.00
2018-12-30T10:23:15.163Z,12.80
2018-12-30T10:24:15.149Z,13.70
2018-12-30T10:25:15.140Z,14.90
2018-12-30T10:26:15.130Z,14.60
2018-12-30T10:27:15.114Z,12.30
2018-12-30T10:28:15.141Z,14.70
2018-12-30T10:29:15.094Z,14.80
2018-12-30T10:30:15.080Z,13.70
2018-12-30T10:31:15.069Z,14.60
2018-12-30T10:32:15.062Z,13.00
2018-12-30T10:33:15.066Z,18.30
2018-12-30T10:34:15.444Z,18.50
2018-12-30T10:35:15.031Z,15.20
2018-12-30T10:36:15.022Z,15.40
2018-12-30T10:37:15.019Z,20.30
2018-12-30T10:38:15.026Z,12.20
2018-12-30T10:39:15.002Z,17.80
2018-12-30T10:40:15.456Z,18.90
2018-12-30T10:41:14.983Z,13.60
2018-12-30T10:42:14.950Z,15.50
2018-12-30T10:43:14.942Z,11.40
2018-12-30T10:44:14.931Z,16.70
2018-12-30T10:45:14.927Z,13.60
2018-12-30T10:46:14.987Z,15.20
2018-12-30T10:47:14.902Z,14.20
2018-12-30T10:48:14.900Z,16.50
2018-12-30T10:49:14.876Z,14.60
2018-12-30T10:50:14.866Z,20.50
2018-12-30T10:51:14.863Z,14.20
2018-12-30T10:52:14.989Z,14.90
2018-12-30T10:53:14.827Z,16.50
2018-12-30T10:54:14.823Z,17.80
2018-12-30T10:55:14.813Z,14.40
2018-12-30T10:56:14.803Z,13.60
2018-12-30T10:57:14.940Z,19.80
2018-12-30T10:58:14.803Z,15.00
2018-12-30T10:59:14.803Z,15.90
2018-12-30T11:00:14.774Z,13.50
2018-12-30T11:01:14.729Z,15.00
2018-12-30T11:02:14.744Z,15.30
2018-12-30T11:03:14.757Z,17.90
2018-12-30T11:04:14.722Z,19.40
2018-12-30T11:05:14.715Z,14.20
2018-12-30T11:06:14.697Z,14.70
2018-12-30T11:07:14.720Z,13.90
2018-12-30T11:08:14.678Z,17.20
2018-12-30T11:09:14.695Z,16.70
2018-12-30T11:10:14.651Z,13.10
2018-12-30T11:11:14.641Z,16.50
2018-12-30T11:12:14.639Z,17.20
2018-12-30T11:13:14.617Z,17.90
2018-12-30T11:14:14.603Z,18.30
2018-12-30T11:15:14.607Z,20.00
2018-12-30T11:16:14.579Z,19.10
2018-12-30T11:17:14.638Z,17.30
2018-12-30T11:18:14.555Z,21.10
2018-12-30T11:19:16.306Z,13.70
2018-12-30T11:20:14.540Z,14.80
2018-12-30T11:21:14.591Z,19.40
2018-12-30T11:22:14.513Z,12.00
2018-12-30T11:23:14.541Z,17.20
2018-12-30T11:24:14.512Z,24.90
2018-12-30T11:25:14.505Z,14.70
2018-12-30T11:26:14.469Z,15.90
2018-12-30T11:27:14.907Z,17.80
2018-12-30T11:28:14.481Z,16.80
2018-12-30T11:29:14.510Z,16.20
2018-12-30T11:30:14.432Z,20.30
2018-12-30T11:31:14.432Z,19.30
2018-12-30T11:32:14.402Z,13.90
2018-12-30T11:33:14.928Z,17.20
2018-12-30T11:34:14.392Z,16.20
2018-12-30T11:35:14.431Z,17.80
2018-12-30T11:36:14.375Z,17.00
2018-12-30T11:37:14.353Z,17.10
2018-12-30T11:38:14.401Z,16.60
2018-12-30T11:39:14.335Z,16.70
2018-12-30T11:40:14.316Z,13.20
2018-12-30T11:41:14.334Z,17.20
2018-12-30T11:42:14.317Z,18.20
2018-12-30T11:43:14.460Z,18.00
2018-12-30T11:44:14.327Z,14.60
2018-12-30T11:45:14.288Z,15.90
2018-12-30T11:46:14.386Z,16.10
2018-12-30T11:47:14.270Z,14.70
2018-12-30T11:48:14.245Z,15.50
2018-12-30T11:49:14.263Z,14.60
2018-12-30T11:50:14.401Z,12.90
2018-12-30T11:51:14.226Z,11.70
2018-12-30T11:52:14.211Z,12.00
2018-12-30T11:53:14.201Z,18.30
2018-12-30T11:54:16.652Z,14.10
2018-12-30T11:55:14.209Z,17.70
2018-12-30T11:56:14.200Z,11.40
2018-12-30T11:57:14.164Z,16.80
2018-12-30T11:58:14.147Z,11.70
2018-12-30T11:59:14.165Z,13.00
2018-12-30T12:00:14.133Z,13.10
2018-12-30T12:01:14.126Z,18.60
2018-12-30T12:02:14.129Z,13.80
2018-12-30T12:03:14.088Z,10.70
2018-12-30T12:04:14.100Z,19.80
2018-12-30T12:05:14.064Z,11.70
2018-12-30T12:06:14.068Z,11.00
2018-12-30T12:07:14.063Z,11.50
2018-12-30T12:08:14.087Z,12.60
2018-12-30T12:09:14.021Z,10.00
2018-12-30T12:10:14.023Z,13.90
2018-12-30T12:13:18.698Z,8.30
2018-12-30T12:14:18.624Z,11.10
2018-12-30T12:15:18.630Z,7.80
2018-12-30T12:16:18.618Z,13.40
2018-12-30T12:17:18.595Z,14.40
2018-12-30T12:18:18.608Z,13.30
2018-12-30T12:19:18.732Z,7.60
2018-12-30T12:20:18.617Z,8.50
2018-12-30T12:21:18.555Z,11.40
2018-12-30T12:22:18.567Z,13.50
2018-12-30T12:23:18.563Z,14.00
2018-12-30T12:24:24.320Z,10.90
2018-12-30T12:25:19.595Z,8.80
2018-12-30T12:26:18.516Z,7.50
2018-12-30T12:27:18.504Z,9.30
2018-12-30T12:28:18.485Z,11.80
2018-12-30T12:29:18.509Z,10.30
2018-12-30T12:30:18.490Z,13.30
2018-12-30T12:31:18.517Z,12.90
2018-12-30T12:32:18.453Z,11.20
2018-12-30T12:33:18.461Z,7.80
2018-12-30T12:34:18.455Z,7.60
2018-12-30T12:35:18.409Z,10.80
2018-12-30T12:36:18.421Z,8.30
2018-12-30T12:37:18.826Z,11.50
2018-12-30T12:38:18.391Z,11.40
2018-12-30T12:39:18.367Z,7.40
2018-12-30T12:40:18.347Z,8.30
2018-12-30T12:41:18.353Z,11.60
2018-12-30T12:42:18.396Z,10.00
2018-12-30T12:45:17.620Z,13.30
2018-12-30T12:46:17.590Z,9.30
2018-12-30T12:47:17.564Z,7.90
2018-12-30T12:48:17.574Z,8.80
2018-12-30T12:49:17.540Z,11.90
2018-12-30T12:50:17.540Z,7.50
2018-12-30T12:51:17.860Z,9.60
2018-12-30T12:52:17.530Z,10.90
2018-12-30T12:53:17.501Z,8.60
2018-12-30T12:54:17.518Z,11.10
2018-12-30T12:55:17.480Z,9.60
2018-12-30T12:56:17.498Z,8.90
2018-12-30T12:57:17.565Z,5.00
2018-12-30T12:58:17.461Z,9.50
2018-12-30T12:59:17.434Z,9.40
2018-12-30T13:00:17.455Z,6.30
2018-12-30T13:01:17.447Z,7.80
2018-12-30T13:02:17.412Z,11.10
2018-12-30T13:03:17.429Z,8.10
2018-12-30T13:04:17.497Z,9.40
2018-12-30T13:05:17.373Z,14.00
2018-12-30T13:06:17.364Z,5.70
2018-12-30T13:07:17.403Z,9.00
2018-12-30T13:08:17.362Z,11.50
2018-12-30T13:09:17.387Z,13.00
2018-12-30T13:10:17.332Z,11.90
2018-12-30T13:11:17.302Z,11.40
2018-12-30T13:12:17.328Z,9.30
2018-12-30T13:13:17.300Z,7.80
2018-12-30T13:14:17.288Z,8.50